Ripley, Canada
Current Conditions -  °F | °C
As of 4:00 AM on Wednesday 22 Oct 2014 (Local Time) from CYVV Reporting Station
Few Clouds Few Clouds  
Wind Chill: 35°   Ceiling: Unl
Heat Index: 39°   Visibility: 15mi
Dew Point: 36°   Wind: 6mph
Humidity: 87%   Direction: 40°NE
Pressure: 30.25"   Gusts: NA
Location:  44.07°N, 81.58°W
Report Text: CYVV 220800Z 04005KT 15SM FEW032 04/02 A3025 RMK SC2 SLP251
Loading
Personal Weather Stations






























Interactive Weather Map New forecast layout! Learn more

10-Day Weather Forecast

Advertisements
Track Severe Weather on mobile